sensor_id;sensor_type;location;lat;lon;timestamp;pressure;altitude;pressure_sealevel;temperature;humidity
19672;BME280;9983;51.114;13.788;2023-05-29T00:02:33;99638.78;;;12.41;83.25
19672;BME280;9983;51.114;13.788;2023-05-29T00:07:33;99641.19;;;11.68;88.26
19672;BME280;9983;51.114;13.788;2023-05-29T00:12:34;99632.88;;;11.86;86.67
19672;BME280;9983;51.114;13.788;2023-05-29T00:17:34;99638.66;;;11.44;89.27
19672;BME280;9983;51.114;13.788;2023-05-29T00:22:35;99633.91;;;11.54;89.18
19672;BME280;9983;51.114;13.788;2023-05-29T00:27:37;99620.00;;;11.19;91.20
19672;BME280;9983;51.114;13.788;2023-05-29T00:32:37;99628.44;;;11.70;88.41
19672;BME280;9983;51.114;13.788;2023-05-29T00:37:37;99632.41;;;11.82;86.82
19672;BME280;9983;51.114;13.788;2023-05-29T00:42:38;99627.75;;;11.76;86.15
19672;BME280;9983;51.114;13.788;2023-05-29T00:47:39;99615.84;;;11.39;88.59
19672;BME280;9983;51.114;13.788;2023-05-29T00:52:41;99625.28;;;11.35;89.30
19672;BME280;9983;51.114;13.788;2023-05-29T00:57:42;99619.25;;;11.33;88.81
19672;BME280;9983;51.114;13.788;2023-05-29T01:02:43;99620.97;;;11.26;88.79
19672;BME280;9983;51.114;13.788;2023-05-29T01:07:45;99615.25;;;11.29;87.92
19672;BME280;9983;51.114;13.788;2023-05-29T01:12:51;99616.16;;;10.75;91.69
19672;BME280;9983;51.114;13.788;2023-05-29T01:28:47;99622.19;;;10.77;89.67
19672;BME280;9983;51.114;13.788;2023-05-29T01:33:54;99633.03;;;10.20;93.93
19672;BME280;9983;51.114;13.788;2023-05-29T01:38:57;99631.28;;;10.51;92.58
19672;BME280;9983;51.114;13.788;2023-05-29T01:43:59;99623.91;;;10.61;91.63
19672;BME280;9983;51.114;13.788;2023-05-29T01:48:59;99632.09;;;10.68;90.53
19672;BME280;9983;51.114;13.788;2023-05-29T01:54:00;99619.13;;;10.80;89.24
19672;BME280;9983;51.114;13.788;2023-05-29T01:59:02;99621.03;;;10.71;89.21
19672;BME280;9983;51.114;13.788;2023-05-29T02:04:02;99623.28;;;10.27;91.72
19672;BME280;9983;51.114;13.788;2023-05-29T02:09:02;99621.59;;;10.42;91.49
19672;BME280;9983;51.114;13.788;2023-05-29T02:14:03;99630.22;;;10.77;88.86
19672;BME280;9983;51.114;13.788;2023-05-29T02:19:04;99622.59;;;10.49;89.87
19672;BME280;9983;51.114;13.788;2023-05-29T02:24:04;99634.00;;;10.27;91.30
19672;BME280;9983;51.114;13.788;2023-05-29T02:29:05;99634.66;;;10.45;89.92
19672;BME280;9983;51.114;13.788;2023-05-29T02:34:05;99634.63;;;10.05;91.98
19672;BME280;9983;51.114;13.788;2023-05-29T02:39:06;99645.03;;;10.16;91.16
19672;BME280;9983;51.114;13.788;2023-05-29T02:44:06;99658.06;;;9.70;93.08
19672;BME280;9983;51.114;13.788;2023-05-29T02:49:06;99660.53;;;9.56;94.73
19672;BME280;9983;51.114;13.788;2023-05-29T02:54:06;99671.13;;;9.81;93.09
19672;BME280;9983;51.114;13.788;2023-05-29T02:59:07;99677.56;;;10.37;88.82
19672;BME280;9983;51.114;13.788;2023-05-29T03:04:09;99680.56;;;10.26;89.91
19672;BME280;9983;51.114;13.788;2023-05-29T03:09:09;99692.19;;;9.68;92.77
19672;BME280;9983;51.114;13.788;2023-05-29T03:14:10;99695.22;;;9.81;93.07
19672;BME280;9983;51.114;13.788;2023-05-29T03:19:10;99688.78;;;9.50;95.57
19672;BME280;9983;51.114;13.788;2023-05-29T03:24:11;99691.81;;;9.55;95.43
19672;BME280;9983;51.114;13.788;2023-05-29T03:29:13;99685.84;;;9.77;92.08
19672;BME280;9983;51.114;13.788;2023-05-29T03:34:13;99687.84;;;9.75;93.04
19672;BME280;9983;51.114;13.788;2023-05-29T03:39:13;99689.94;;;9.05;97.11
19672;BME280;9983;51.114;13.788;2023-05-29T03:44:14;99689.78;;;8.73;100.00
19672;BME280;9983;51.114;13.788;2023-05-29T03:49:14;99685.88;;;9.27;97.27
19672;BME280;9983;51.114;13.788;2023-05-29T03:54:14;99690.63;;;9.07;97.93
19672;BME280;9983;51.114;13.788;2023-05-29T03:59:15;99698.97;;;9.04;98.79
19672;BME280;9983;51.114;13.788;2023-05-29T04:04:15;99699.75;;;9.31;95.39
19672;BME280;9983;51.114;13.788;2023-05-29T04:09:15;99704.56;;;8.85;99.50
19672;BME280;9983;51.114;13.788;2023-05-29T04:14:15;99705.88;;;9.57;95.92
19672;BME280;9983;51.114;13.788;2023-05-29T04:19:16;99708.47;;;9.33;97.65
19672;BME280;9983;51.114;13.788;2023-05-29T04:24:16;99716.03;;;9.96;94.24
19672;BME280;9983;51.114;13.788;2023-05-29T04:29:16;99716.94;;;9.62;96.71
19672;BME280;9983;51.114;13.788;2023-05-29T04:34:16;99719.53;;;9.46;98.79
19672;BME280;9983;51.114;13.788;2023-05-29T04:39:17;99734.09;;;10.10;96.00
19672;BME280;9983;51.114;13.788;2023-05-29T04:44:17;99725.41;;;10.73;91.22
19672;BME280;9983;51.114;13.788;2023-05-29T04:49:18;99730.78;;;10.73;92.75
19672;BME280;9983;51.114;13.788;2023-05-29T04:54:19;99734.72;;;11.17;90.47
19672;BME280;9983;51.114;13.788;2023-05-29T04:59:19;99731.31;;;11.31;91.65
19672;BME280;9983;51.114;13.788;2023-05-29T05:04:20;99734.66;;;11.33;91.60
19672;BME280;9983;51.114;13.788;2023-05-29T05:09:20;99725.88;;;11.48;91.88
19672;BME280;9983;51.114;13.788;2023-05-29T05:14:21;99726.59;;;11.81;91.35
19672;BME280;9983;51.114;13.788;2023-05-29T05:19:21;99726.88;;;12.16;90.47
19672;BME280;9983;51.114;13.788;2023-05-29T05:24:21;99729.41;;;12.55;89.60
19672;BME280;9983;51.114;13.788;2023-05-29T05:29:21;99727.81;;;12.99;87.47
19672;BME280;9983;51.114;13.788;2023-05-29T05:34:22;99731.22;;;13.30;84.73
19672;BME280;9983;51.114;13.788;2023-05-29T05:39:22;99730.66;;;13.20;84.88
19672;BME280;9983;51.114;13.788;2023-05-29T05:44:22;99739.34;;;13.81;80.99
19672;BME280;9983;51.114;13.788;2023-05-29T05:49:23;99743.97;;;13.87;79.93
19672;BME280;9983;51.114;13.788;2023-05-29T05:54:23;99744.28;;;14.13;77.92
19672;BME280;9983;51.114;13.788;2023-05-29T05:59:23;99744.78;;;14.23;77.58
19672;BME280;9983;51.114;13.788;2023-05-29T06:04:23;99747.19;;;14.54;75.37
19672;BME280;9983;51.114;13.788;2023-05-29T06:09:23;99755.81;;;14.43;75.44
19672;BME280;9983;51.114;13.788;2023-05-29T06:14:25;99747.03;;;14.84;73.06
19672;BME280;9983;51.114;13.788;2023-05-29T06:19:25;99755.44;;;14.95;72.45
19672;BME280;9983;51.114;13.788;2023-05-29T06:24:25;99763.97;;;15.27;70.89
19672;BME280;9983;51.114;13.788;2023-05-29T06:29:26;99762.53;;;15.65;69.08
19672;BME280;9983;51.114;13.788;2023-05-29T06:34:26;99748.56;;;16.03;68.32
19672;BME280;9983;51.114;13.788;2023-05-29T06:39:26;99761.91;;;16.24;65.78
19672;BME280;9983;51.114;13.788;2023-05-29T06:44:27;99756.34;;;16.58;63.82
19672;BME280;9983;51.114;13.788;2023-05-29T06:49:27;99764.53;;;16.85;61.39
19672;BME280;9983;51.114;13.788;2023-05-29T06:54:27;99765.97;;;17.00;57.42
19672;BME280;9983;51.114;13.788;2023-05-29T06:59:27;99769.09;;;17.17;57.72
19672;BME280;9983;51.114;13.788;2023-05-29T07:04:28;99772.16;;;17.54;57.04
19672;BME280;9983;51.114;13.788;2023-05-29T07:09:28;99771.91;;;17.75;58.76
19672;BME280;9983;51.114;13.788;2023-05-29T07:14:28;99770.38;;;17.92;57.37
19672;BME280;9983;51.114;13.788;2023-05-29T07:19:28;99776.41;;;18.07;55.74
19672;BME280;9983;51.114;13.788;2023-05-29T07:24:29;99781.75;;;18.20;56.65
19672;BME280;9983;51.114;13.788;2023-05-29T07:29:29;99784.72;;;18.44;54.54
19672;BME280;9983;51.114;13.788;2023-05-29T07:34:30;99792.75;;;18.70;53.36
19672;BME280;9983;51.114;13.788;2023-05-29T07:39:34;99796.66;;;19.06;49.68
19672;BME280;9983;51.114;13.788;2023-05-29T07:44:35;99788.91;;;19.27;50.46
19672;BME280;9983;51.114;13.788;2023-05-29T07:49:35;99795.78;;;19.55;46.50
19672;BME280;9983;51.114;13.788;2023-05-29T07:54:35;99795.59;;;19.75;46.51
19672;BME280;9983;51.114;13.788;2023-05-29T07:59:36;99798.28;;;20.11;45.25
19672;BME280;9983;51.114;13.788;2023-05-29T08:04:37;99798.16;;;20.06;46.30
19672;BME280;9983;51.114;13.788;2023-05-29T08:09:37;99797.66;;;20.09;46.88
19672;BME280;9983;51.114;13.788;2023-05-29T08:14:37;99805.19;;;20.43;45.81
19672;BME280;9983;51.114;13.788;2023-05-29T08:19:37;99801.69;;;20.55;45.71
19672;BME280;9983;51.114;13.788;2023-05-29T08:24:38;99805.31;;;20.67;45.10
19672;BME280;9983;51.114;13.788;2023-05-29T08:29:38;99792.41;;;20.86;44.59
19672;BME280;9983;51.114;13.788;2023-05-29T08:34:39;99798.91;;;20.73;44.25
19672;BME280;9983;51.114;13.788;2023-05-29T08:39:39;99797.28;;;20.95;41.97
19672;BME280;9983;51.114;13.788;2023-05-29T08:44:40;99795.47;;;21.31;40.69
19672;BME280;9983;51.114;13.788;2023-05-29T08:49:42;99801.38;;;21.28;39.49
19672;BME280;9983;51.114;13.788;2023-05-29T08:54:45;99798.31;;;21.59;39.11
19672;BME280;9983;51.114;13.788;2023-05-29T08:59:47;99777.56;;;21.46;37.22
19672;BME280;9983;51.114;13.788;2023-05-29T09:04:49;99789.03;;;21.83;38.85
19672;BME280;9983;51.114;13.788;2023-05-29T09:09:49;99794.47;;;22.07;37.62
19672;BME280;9983;51.114;13.788;2023-05-29T09:14:50;99791.16;;;21.81;36.35
19672;BME280;9983;51.114;13.788;2023-05-29T09:19:50;99800.66;;;21.90;35.95
19672;BME280;9983;51.114;13.788;2023-05-29T09:24:50;99795.56;;;22.34;36.36
19672;BME280;9983;51.114;13.788;2023-05-29T09:29:51;99799.41;;;22.10;34.49
19672;BME280;9983;51.114;13.788;2023-05-29T09:34:52;99798.28;;;22.34;35.71
19672;BME280;9983;51.114;13.788;2023-05-29T09:39:53;99800.59;;;22.70;35.73
19672;BME280;9983;51.114;13.788;2023-05-29T09:44:54;99808.44;;;22.79;34.50
19672;BME280;9983;51.114;13.788;2023-05-29T09:49:54;99807.94;;;22.82;35.50
19672;BME280;9983;51.114;13.788;2023-05-29T09:54:55;99800.91;;;22.57;34.67
19672;BME280;9983;51.114;13.788;2023-05-29T09:59:56;99792.03;;;23.12;33.60
19672;BME280;9983;51.114;13.788;2023-05-29T10:04:58;99788.00;;;23.15;35.27
19672;BME280;9983;51.114;13.788;2023-05-29T10:10:00;99795.53;;;23.07;34.95
19672;BME280;9983;51.114;13.788;2023-05-29T10:15:02;99784.03;;;24.21;32.61
19672;BME280;9983;51.114;13.788;2023-05-29T10:20:06;99776.09;;;24.46;32.08
19672;BME280;9983;51.114;13.788;2023-05-29T10:25:09;99794.84;;;24.11;33.88
19672;BME280;9983;51.114;13.788;2023-05-29T10:30:22;99788.19;;;24.24;33.53
19672;BME280;9983;51.114;13.788;2023-05-29T10:35:42;99793.09;;;24.22;32.02
19672;BME280;9983;51.114;13.788;2023-05-29T10:40:45;99778.72;;;25.22;30.99
19672;BME280;9983;51.114;13.788;2023-05-29T10:45:49;99773.84;;;25.66;31.12
19672;BME280;9983;51.114;13.788;2023-05-29T10:50:51;99771.81;;;25.56;31.57
19672;BME280;9983;51.114;13.788;2023-05-29T10:55:52;99780.38;;;25.23;31.38
19672;BME280;9983;51.114;13.788;2023-05-29T11:00:54;99783.63;;;25.15;31.68
19672;BME280;9983;51.114;13.788;2023-05-29T11:05:59;99778.81;;;26.36;29.30
19672;BME280;9983;51.114;13.788;2023-05-29T11:11:00;99766.78;;;26.73;29.16
19672;BME280;9983;51.114;13.788;2023-05-29T11:16:11;99769.03;;;27.11;28.43
19672;BME280;9983;51.114;13.788;2023-05-29T11:21:23;99762.31;;;26.36;29.61
19672;BME280;9983;51.114;13.788;2023-05-29T11:26:29;99774.53;;;27.22;29.44
19672;BME280;9983;51.114;13.788;2023-05-29T11:31:32;99765.91;;;28.38;28.13
19672;BME280;9983;51.114;13.788;2023-05-29T11:36:33;99754.84;;;29.74;27.09
19672;BME280;9983;51.114;13.788;2023-05-29T11:41:33;99751.72;;;30.84;25.96
19672;BME280;9983;51.114;13.788;2023-05-29T11:46:34;99759.53;;;32.16;24.24
19672;BME280;9983;51.114;13.788;2023-05-29T11:51:34;99749.91;;;33.07;22.44
19672;BME280;9983;51.114;13.788;2023-05-29T11:56:35;99744.38;;;33.30;21.90
19672;BME280;9983;51.114;13.788;2023-05-29T12:01:35;99754.81;;;32.16;23.30
19672;BME280;9983;51.114;13.788;2023-05-29T12:06:35;99760.41;;;31.56;23.11
19672;BME280;9983;51.114;13.788;2023-05-29T12:11:38;99755.34;;;33.35;22.14
19672;BME280;9983;51.114;13.788;2023-05-29T12:16:38;99744.13;;;34.53;21.17
19672;BME280;9983;51.114;13.788;2023-05-29T12:21:41;99743.25;;;33.39;21.99
19672;BME280;9983;51.114;13.788;2023-05-29T12:26:43;99742.03;;;31.01;22.95
19672;BME280;9983;51.114;13.788;2023-05-29T12:31:43;99735.34;;;29.41;24.11
19672;BME280;9983;51.114;13.788;2023-05-29T12:36:44;99726.53;;;31.00;22.57
19672;BME280;9983;51.114;13.788;2023-05-29T12:41:44;99729.94;;;31.97;22.33
19672;BME280;9983;51.114;13.788;2023-05-29T12:46:44;99727.91;;;31.76;21.63
19672;BME280;9983;51.114;13.788;2023-05-29T12:51:45;99724.59;;;30.68;23.49
19672;BME280;9983;51.114;13.788;2023-05-29T12:56:46;99724.59;;;29.35;24.87
19672;BME280;9983;51.114;13.788;2023-05-29T13:01:46;99728.34;;;28.52;26.19
19672;BME280;9983;51.114;13.788;2023-05-29T13:06:46;99718.00;;;28.29;26.26
19672;BME280;9983;51.114;13.788;2023-05-29T13:11:47;99719.78;;;28.88;25.53
19672;BME280;9983;51.114;13.788;2023-05-29T13:16:47;99714.91;;;31.62;24.07
19672;BME280;9983;51.114;13.788;2023-05-29T13:21:48;99712.03;;;33.11;23.02
19672;BME280;9983;51.114;13.788;2023-05-29T13:26:49;99701.63;;;31.59;24.12
19672;BME280;9983;51.114;13.788;2023-05-29T13:31:50;99706.75;;;32.79;22.74
19672;BME280;9983;51.114;13.788;2023-05-29T13:36:50;99698.13;;;31.40;23.55
19672;BME280;9983;51.114;13.788;2023-05-29T13:41:51;99695.44;;;32.75;22.09
19672;BME280;9983;51.114;13.788;2023-05-29T13:46:51;99698.09;;;31.13;24.03
19672;BME280;9983;51.114;13.788;2023-05-29T13:51:51;99694.81;;;30.22;24.79
19672;BME280;9983;51.114;13.788;2023-05-29T13:56:52;99703.63;;;30.24;25.24
19672;BME280;9983;51.114;13.788;2023-05-29T14:01:52;99695.88;;;29.07;25.69
19672;BME280;9983;51.114;13.788;2023-05-29T14:06:52;99695.13;;;30.90;24.15
19672;BME280;9983;51.114;13.788;2023-05-29T14:11:58;99691.25;;;29.79;24.87
19672;BME280;9983;51.114;13.788;2023-05-29T14:16:58;99688.38;;;30.97;23.59
19672;BME280;9983;51.114;13.788;2023-05-29T14:21:59;99684.69;;;28.59;26.40
19672;BME280;9983;51.114;13.788;2023-05-29T14:27:00;99689.94;;;28.95;26.14
19672;BME280;9983;51.114;13.788;2023-05-29T14:32:02;99694.41;;;31.31;23.80
19672;BME280;9983;51.114;13.788;2023-05-29T14:37:02;99684.13;;;32.27;23.01
19672;BME280;9983;51.114;13.788;2023-05-29T14:42:03;99688.16;;;32.44;22.40
19672;BME280;9983;51.114;13.788;2023-05-29T14:47:03;99684.22;;;33.34;20.94
19672;BME280;9983;51.114;13.788;2023-05-29T14:52:04;99681.13;;;33.83;21.99
19672;BME280;9983;51.114;13.788;2023-05-29T14:57:04;99691.75;;;33.42;20.90
19672;BME280;9983;51.114;13.788;2023-05-29T15:02:05;99672.94;;;35.92;19.76
19672;BME280;9983;51.114;13.788;2023-05-29T15:07:05;99679.25;;;37.17;19.49
19672;BME280;9983;51.114;13.788;2023-05-29T15:12:06;99687.63;;;35.81;19.57
19672;BME280;9983;51.114;13.788;2023-05-29T15:17:07;99684.94;;;35.55;19.55
19672;BME280;9983;51.114;13.788;2023-05-29T15:22:07;99677.66;;;32.54;22.32
19672;BME280;9983;51.114;13.788;2023-05-29T15:27:09;99680.34;;;32.46;22.21
19672;BME280;9983;51.114;13.788;2023-05-29T15:32:09;99687.66;;;31.64;22.99
19672;BME280;9983;51.114;13.788;2023-05-29T15:37:09;99677.22;;;31.61;22.44
19672;BME280;9983;51.114;13.788;2023-05-29T15:42:10;99666.97;;;33.54;21.71
19672;BME280;9983;51.114;13.788;2023-05-29T15:47:12;99655.91;;;33.71;20.65
19672;BME280;9983;51.114;13.788;2023-05-29T15:52:13;99666.91;;;33.37;21.68
19672;BME280;9983;51.114;13.788;2023-05-29T15:57:13;99663.53;;;32.87;22.66
19672;BME280;9983;51.114;13.788;2023-05-29T16:02:13;99661.56;;;34.06;20.53
19672;BME280;9983;51.114;13.788;2023-05-29T16:07:14;99668.56;;;33.38;21.45
19672;BME280;9983;51.114;13.788;2023-05-29T16:12:14;99672.22;;;33.25;21.43
19672;BME280;9983;51.114;13.788;2023-05-29T16:17:15;99665.66;;;33.60;21.29
19672;BME280;9983;51.114;13.788;2023-05-29T16:22:15;99673.59;;;33.75;20.58
19672;BME280;9983;51.114;13.788;2023-05-29T16:27:15;99677.38;;;31.92;22.56
19672;BME280;9983;51.114;13.788;2023-05-29T16:32:15;99675.69;;;30.44;24.60
19672;BME280;9983;51.114;13.788;2023-05-29T16:37:16;99674.97;;;29.01;26.17
19672;BME280;9983;51.114;13.788;2023-05-29T16:42:16;99670.13;;;28.88;26.58
19672;BME280;9983;51.114;13.788;2023-05-29T16:47:16;99676.22;;;28.07;27.28
19672;BME280;9983;51.114;13.788;2023-05-29T16:52:17;99680.41;;;27.14;28.34
19672;BME280;9983;51.114;13.788;2023-05-29T16:57:19;99677.03;;;27.38;28.36
19672;BME280;9983;51.114;13.788;2023-05-29T17:02:20;99675.97;;;27.29;28.79
19672;BME280;9983;51.114;13.788;2023-05-29T17:07:20;99684.28;;;26.83;29.33
19672;BME280;9983;51.114;13.788;2023-05-29T17:12:21;99682.59;;;26.31;30.05
19672;BME280;9983;51.114;13.788;2023-05-29T17:17:22;99675.22;;;26.57;30.57
19672;BME280;9983;51.114;13.788;2023-05-29T17:22:22;99680.34;;;26.13;30.47
19672;BME280;9983;51.114;13.788;2023-05-29T17:27:23;99676.97;;;25.81;31.14
19672;BME280;9983;51.114;13.788;2023-05-29T17:32:23;99680.53;;;25.29;31.61
19672;BME280;9983;51.114;13.788;2023-05-29T17:37:23;99684.09;;;25.24;32.49
19672;BME280;9983;51.114;13.788;2023-05-29T17:42:23;99688.16;;;25.17;32.85
19672;BME280;9983;51.114;13.788;2023-05-29T17:47:24;99686.34;;;24.95;32.91
19672;BME280;9983;51.114;13.788;2023-05-29T17:52:24;99703.59;;;24.59;33.29
19672;BME280;9983;51.114;13.788;2023-05-29T17:57:25;99702.56;;;24.65;33.69
19672;BME280;9983;51.114;13.788;2023-05-29T18:02:25;99706.28;;;24.00;34.11
19672;BME280;9983;51.114;13.788;2023-05-29T18:07:25;99714.88;;;24.36;34.90
19672;BME280;9983;51.114;13.788;2023-05-29T18:12:25;99711.72;;;24.22;34.49
19672;BME280;9983;51.114;13.788;2023-05-29T18:17:27;99717.53;;;24.04;34.82
19672;BME280;9983;51.114;13.788;2023-05-29T18:22:27;99715.69;;;24.09;34.64
19672;BME280;9983;51.114;13.788;2023-05-29T18:27:27;99716.06;;;23.96;35.23
19672;BME280;9983;51.114;13.788;2023-05-29T18:32:34;99718.44;;;23.66;36.00
19672;BME280;9983;51.114;13.788;2023-05-29T18:37:35;99721.06;;;23.99;35.26
19672;BME280;9983;51.114;13.788;2023-05-29T18:42:35;99725.28;;;23.85;35.69
19672;BME280;9983;51.114;13.788;2023-05-29T18:47:36;99731.03;;;23.89;35.69
19672;BME280;9983;51.114;13.788;2023-05-29T18:52:36;99734.44;;;23.74;35.73
19672;BME280;9983;51.114;13.788;2023-05-29T18:57:36;99742.94;;;23.56;36.11
19672;BME280;9983;51.114;13.788;2023-05-29T19:02:37;99739.97;;;23.40;37.81
19672;BME280;9983;51.114;13.788;2023-05-29T19:07:38;99748.66;;;22.70;42.11
19672;BME280;9983;51.114;13.788;2023-05-29T19:12:38;99748.41;;;22.55;42.41
19672;BME280;9983;51.114;13.788;2023-05-29T19:17:38;99750.28;;;22.10;43.34
19672;BME280;9983;51.114;13.788;2023-05-29T19:22:38;99755.25;;;21.61;45.54
19672;BME280;9983;51.114;13.788;2023-05-29T19:27:39;99755.50;;;21.48;45.15
19672;BME280;9983;51.114;13.788;2023-05-29T19:32:39;99765.41;;;20.96;46.85
19672;BME280;9983;51.114;13.788;2023-05-29T19:37:40;99763.63;;;20.78;47.73
19672;BME280;9983;51.114;13.788;2023-05-29T19:42:41;99763.34;;;20.68;48.30
19672;BME280;9983;51.114;13.788;2023-05-29T19:47:41;99782.41;;;20.56;49.69
19672;BME280;9983;51.114;13.788;2023-05-29T19:52:41;99781.91;;;20.29;50.44
19672;BME280;9983;51.114;13.788;2023-05-29T19:57:41;99801.00;;;20.11;50.99
19672;BME280;9983;51.114;13.788;2023-05-29T20:02:42;99797.53;;;19.86;52.15
19672;BME280;9983;51.114;13.788;2023-05-29T20:07:42;99797.25;;;19.32;53.86
19672;BME280;9983;51.114;13.788;2023-05-29T20:12:42;99803.25;;;19.59;53.06
19672;BME280;9983;51.114;13.788;2023-05-29T20:17:45;99810.22;;;19.30;54.45
19672;BME280;9983;51.114;13.788;2023-05-29T20:22:46;99814.28;;;18.97;56.32
19672;BME280;9983;51.114;13.788;2023-05-29T20:27:46;99823.88;;;18.99;56.37
19672;BME280;9983;51.114;13.788;2023-05-29T20:32:46;99815.78;;;18.54;58.20
19672;BME280;9983;51.114;13.788;2023-05-29T20:37:50;99817.94;;;18.46;58.48
19672;BME280;9983;51.114;13.788;2023-05-29T20:42:53;99819.31;;;18.24;59.14
19672;BME280;9983;51.114;13.788;2023-05-29T20:47:54;99821.28;;;18.48;58.45
19672;BME280;9983;51.114;13.788;2023-05-29T20:52:55;99826.03;;;18.59;58.22
19672;BME280;9983;51.114;13.788;2023-05-29T20:57:55;99818.84;;;18.27;58.35
19672;BME280;9983;51.114;13.788;2023-05-29T21:02:57;99830.34;;;18.29;59.19
19672;BME280;9983;51.114;13.788;2023-05-29T21:07:57;99825.66;;;18.04;60.17
19672;BME280;9983;51.114;13.788;2023-05-29T21:12:57;99833.84;;;18.36;59.94
19672;BME280;9983;51.114;13.788;2023-05-29T21:17:57;99825.97;;;18.28;60.18
19672;BME280;9983;51.114;13.788;2023-05-29T21:22:58;99826.94;;;17.95;60.31
19672;BME280;9983;51.114;13.788;2023-05-29T21:27:58;99821.44;;;18.08;60.46
19672;BME280;9983;51.114;13.788;2023-05-29T21:32:58;99834.50;;;17.80;61.71
19672;BME280;9983;51.114;13.788;2023-05-29T21:38:03;99838.44;;;17.58;62.22
19672;BME280;9983;51.114;13.788;2023-05-29T21:43:04;99835.75;;;17.77;61.75
19672;BME280;9983;51.114;13.788;2023-05-29T21:48:04;99833.66;;;17.60;62.12
19672;BME280;9983;51.114;13.788;2023-05-29T21:53:04;99832.44;;;17.10;64.92
19672;BME280;9983;51.114;13.788;2023-05-29T21:58:05;99841.22;;;17.12;64.21
19672;BME280;9983;51.114;13.788;2023-05-29T22:03:05;99840.38;;;17.24;63.31
19672;BME280;9983;51.114;13.788;2023-05-29T22:08:05;99851.63;;;17.34;63.48
19672;BME280;9983;51.114;13.788;2023-05-29T22:13:06;99845.81;;;17.04;64.58
19672;BME280;9983;51.114;13.788;2023-05-29T22:18:06;99850.59;;;16.96;64.35
19672;BME280;9983;51.114;13.788;2023-05-29T22:23:07;99857.03;;;17.08;64.21
19672;BME280;9983;51.114;13.788;2023-05-29T22:28:07;99862.06;;;16.98;65.97
19672;BME280;9983;51.114;13.788;2023-05-29T22:33:07;99858.69;;;16.83;64.58
19672;BME280;9983;51.114;13.788;2023-05-29T22:38:08;99868.50;;;17.17;64.85
19672;BME280;9983;51.114;13.788;2023-05-29T22:43:08;99861.84;;;17.19;65.32
19672;BME280;9983;51.114;13.788;2023-05-29T22:48:09;99859.97;;;17.39;63.56
19672;BME280;9983;51.114;13.788;2023-05-29T22:53:09;99864.97;;;17.42;62.45
19672;BME280;9983;51.114;13.788;2023-05-29T22:58:10;99872.25;;;17.35;59.99
19672;BME280;9983;51.114;13.788;2023-05-29T23:03:11;99867.88;;;17.61;58.42
19672;BME280;9983;51.114;13.788;2023-05-29T23:08:13;99868.72;;;17.55;57.70
19672;BME280;9983;51.114;13.788;2023-05-29T23:13:14;99866.22;;;17.07;60.21
19672;BME280;9983;51.114;13.788;2023-05-29T23:18:14;99864.97;;;17.29;59.15
19672;BME280;9983;51.114;13.788;2023-05-29T23:23:16;99859.94;;;16.93;64.18
19672;BME280;9983;51.114;13.788;2023-05-29T23:28:16;99868.72;;;17.02;63.51
19672;BME280;9983;51.114;13.788;2023-05-29T23:33:18;99863.31;;;16.41;64.88
19672;BME280;9983;51.114;13.788;2023-05-29T23:38:18;99860.25;;;16.57;63.23
19672;BME280;9983;51.114;13.788;2023-05-29T23:43:18;99867.66;;;16.29;64.58
19672;BME280;9983;51.114;13.788;2023-05-29T23:48:18;99868.53;;;16.43;63.23
19672;BME280;9983;51.114;13.788;2023-05-29T23:53:19;99873.13;;;16.42;62.08
19672;BME280;9983;51.114;13.788;2023-05-29T23:58:19;99866.09;;;16.54;61.04
